PWSweather.com
Personal Weather Stations
Station Observations

YeovilGB

Lat: 50.949, Lon: -2.627

Elevation: 70

Station Type: Vantage Pro

http://www.yeovil-weather.me.uk/

High Low Average
Temperature 48.7°F9.3°C 26.5°F-3.1°C 36.0°F2.2°C
Dew Point 47.6°F8.7°C 25.1°F-3.8°C 34.1°F1.2°C
Winds 10.4 mph 16.7 kmh Calm Calm 1.0 mph SW1.6 kmh SW
Wind Gusts 18.4 mph29.6 kmh -- 2.0 mph3.2 kmh
Humidity 97% 87% 93%
Pressure 29.85 in1010.8 mb 29.58 in1001.7 mb -
Precipitation 0.03 in0.8 mm - -
Hour Temp Dew Point Humidity Winds Wind Gusts Pressure Precip Precip Rate Daily Precip Total
12:00 AM 30.8°F-0.7°C 28.2°F-2.1°C 90% Calm Calm -- 29.58 in1001.7 mb - 0.00 in0.0 mm 0.00 in0.0 mm
12:10 AM 30.4°F-0.9°C 27.8°F-2.3°C 90% Calm Calm -- 29.58 in1001.7 mb - 0.00 in0.0 mm 0.00 in0.0 mm
12:20 AM 29.9°F-1.2°C 27.4°F-2.6°C 90% Calm Calm -- 29.59 in1002.0 mb - 0.00 in0.0 mm 0.00 in0.0 mm
12:30 AM 29.7°F-1.3°C 27.4°F-2.6°C 91% Calm Calm -- 29.59 in1002.0 mb - 0.00 in0.0 mm 0.00 in0.0 mm
12:40 AM 29.9°F-1.2°C 27.9°F-2.3°C 92% Calm Calm -- 29.59 in1002.0 mb - 0.00 in0.0 mm 0.00 in0.0 mm
12:50 AM 30.2°F-1.0°C 28.2°F-2.1°C 92% Calm Calm -- 29.60 in1002.4 mb - 0.00 in0.0 mm 0.00 in0.0 mm
01:00 AM 30.6°F-0.8°C 28.8°F-1.8°C 93% Calm Calm -- 29.61 in1002.7 mb - 0.00 in0.0 mm 0.00 in0.0 mm
01:10 AM 30.9°F-0.6°C 29.1°F-1.6°C 93% Calm Calm -- 29.61 in1002.7 mb - 0.00 in0.0 mm 0.00 in0.0 mm
01:20 AM 30.8°F-0.7°C 29.0°F-1.7°C 93% Calm Calm -- 29.62 in1003.0 mb - 0.00 in0.0 mm 0.00 in0.0 mm
01:30 AM 30.4°F-0.9°C 28.4°F-2.0°C 92% Calm Calm -- 29.63 in1003.4 mb - 0.00 in0.0 mm 0.00 in0.0 mm
01:40 AM 29.9°F-1.2°C 27.9°F-2.3°C 92% Calm Calm -- 29.63 in1003.4 mb - 0.00 in0.0 mm 0.00 in0.0 mm
01:50 AM 29.6°F-1.3°C 27.5°F-2.5°C 92% Calm Calm -- 29.64 in1003.7 mb - 0.00 in0.0 mm 0.00 in0.0 mm
02:00 AM 29.5°F-1.4°C 27.7°F-2.4°C 93% Calm Calm -- 29.64 in1003.7 mb - 0.00 in0.0 mm 0.00 in0.0 mm
02:10 AM 29.6°F-1.3°C 27.8°F-2.3°C 93% Calm Calm -- 29.64 in1003.7 mb - 0.00 in0.0 mm 0.00 in0.0 mm
02:20 AM 29.8°F-1.2°C 28.1°F-2.2°C 93% Calm Calm 1.2 mph1.9 kmh 29.65 in1004.1 mb - 0.00 in0.0 mm 0.00 in0.0 mm
02:30 AM 30.4°F-0.9°C 28.9°F-1.7°C 94% Calm Calm -- 29.66 in1004.4 mb - 0.00 in0.0 mm 0.00 in0.0 mm
02:40 AM 30.7°F-0.7°C 29.2°F-1.6°C 94% Calm Calm -- 29.66 in1004.4 mb - 0.00 in0.0 mm 0.00 in0.0 mm
02:50 AM 30.8°F-0.7°C 29.3°F-1.5°C 94% Calm Calm -- 29.67 in1004.7 mb - 0.00 in0.0 mm 0.00 in0.0 mm
03:00 AM 30.9°F-0.6°C 29.3°F-1.5°C 94% Calm Calm -- 29.68 in1005.1 mb - 0.00 in0.0 mm 0.00 in0.0 mm
03:10 AM 30.8°F-0.7°C 29.3°F-1.5°C 94% Calm Calm -- 29.68 in1005.1 mb - 0.00 in0.0 mm 0.00 in0.0 mm
03:20 AM 30.6°F-0.8°C 28.8°F-1.8°C 93% Calm Calm -- 29.68 in1005.1 mb - 0.00 in0.0 mm 0.00 in0.0 mm
03:30 AM 30.2°F-1.0°C 28.4°F-2.0°C 93% Calm Calm -- 29.68 in1005.1 mb - 0.00 in0.0 mm 0.00 in0.0 mm
03:40 AM 29.7°F-1.3°C 27.9°F-2.3°C 93% Calm Calm -- 29.68 in1005.1 mb - 0.00 in0.0 mm 0.00 in0.0 mm
03:50 AM 29.1°F-1.6°C 27.1°F-2.7°C 92% Calm Calm -- 29.69 in1005.4 mb - 0.00 in0.0 mm 0.00 in0.0 mm
04:00 AM 28.7°F-1.8°C 26.7°F-2.9°C 92% Calm Calm -- 29.70 in1005.8 mb - 0.00 in0.0 mm 0.00 in0.0 mm
04:10 AM 28.3°F-2.1°C 26.6°F-3.0°C 93% Calm Calm -- 29.70 in1005.8 mb - 0.00 in0.0 mm 0.00 in0.0 mm
04:20 AM 28.2°F-2.1°C 26.4°F-3.1°C 93% Calm Calm -- 29.71 in1006.1 mb - 0.00 in0.0 mm 0.00 in0.0 mm
04:30 AM 28.0°F-2.2°C 26.2°F-3.2°C 93% Calm Calm -- 29.71 in1006.1 mb - 0.00 in0.0 mm 0.00 in0.0 mm
04:40 AM 27.8°F-2.3°C 26.1°F-3.3°C 93% Calm Calm -- 29.71 in1006.1 mb - 0.00 in0.0 mm 0.00 in0.0 mm
04:50 AM 27.6°F-2.4°C 25.8°F-3.4°C 93% Calm Calm -- 29.72 in1006.4 mb - 0.00 in0.0 mm 0.00 in0.0 mm
05:00 AM 27.5°F-2.5°C 25.7°F-3.5°C 93% Calm Calm -- 29.72 in1006.4 mb - 0.00 in0.0 mm 0.00 in0.0 mm
05:10 AM 27.3°F-2.6°C 25.5°F-3.6°C 93% Calm Calm -- 29.72 in1006.4 mb - 0.00 in0.0 mm 0.00 in0.0 mm
05:20 AM 27.1°F-2.7°C 25.3°F-3.7°C 93% Calm Calm -- 29.73 in1006.8 mb - 0.00 in0.0 mm 0.00 in0.0 mm
05:30 AM 26.9°F-2.8°C 25.2°F-3.8°C 93% Calm Calm -- 29.73 in1006.8 mb - 0.00 in0.0 mm 0.00 in0.0 mm
05:40 AM 26.8°F-2.9°C 25.3°F-3.7°C 94% Calm Calm -- 29.74 in1007.1 mb - 0.00 in0.0 mm 0.00 in0.0 mm
05:50 AM 26.8°F-2.9°C 25.3°F-3.7°C 94% Calm Calm -- 29.75 in1007.5 mb - 0.00 in0.0 mm 0.00 in0.0 mm
06:00 AM 26.8°F-2.9°C 25.3°F-3.7°C 94% Calm Calm -- 29.75 in1007.5 mb - 0.00 in0.0 mm 0.00 in0.0 mm
06:10 AM 26.9°F-2.8°C 25.4°F-3.7°C 94% Calm Calm -- 29.75 in1007.5 mb - 0.00 in0.0 mm 0.00 in0.0 mm
06:20 AM 26.9°F-2.8°C 25.4°F-3.7°C 94% Calm Calm -- 29.75 in1007.5 mb - 0.00 in0.0 mm 0.00 in0.0 mm
06:30 AM 26.8°F-2.9°C 25.3°F-3.7°C 94% Calm Calm -- 29.76 in1007.8 mb - 0.00 in0.0 mm 0.00 in0.0 mm
06:40 AM 26.7°F-2.9°C 25.2°F-3.8°C 94% Calm Calm -- 29.76 in1007.8 mb - 0.00 in0.0 mm 0.00 in0.0 mm
06:50 AM 26.7°F-2.9°C 25.2°F-3.8°C 94% Calm Calm -- 29.76 in1007.8 mb - 0.00 in0.0 mm 0.00 in0.0 mm
07:00 AM 26.7°F-2.9°C 25.2°F-3.8°C 94% Calm Calm -- 29.77 in1008.1 mb - 0.00 in0.0 mm 0.00 in0.0 mm
07:10 AM 26.7°F-2.9°C 25.2°F-3.8°C 94% Calm Calm -- 29.77 in1008.1 mb - 0.00 in0.0 mm 0.00 in0.0 mm
07:20 AM 26.6°F-3.0°C 25.1°F-3.8°C 94% Calm Calm -- 29.78 in1008.5 mb - 0.00 in0.0 mm 0.00 in0.0 mm
07:30 AM 26.6°F-3.0°C 25.1°F-3.8°C 94% Calm Calm -- 29.79 in1008.8 mb - 0.00 in0.0 mm 0.00 in0.0 mm
07:40 AM 26.5°F-3.1°C 25.1°F-3.8°C 94% Calm Calm -- 29.79 in1008.8 mb - 0.00 in0.0 mm 0.00 in0.0 mm
07:50 AM 26.8°F-2.9°C 25.5°F-3.6°C 95% Calm Calm -- 29.80 in1009.1 mb - 0.00 in0.0 mm 0.00 in0.0 mm
08:00 AM 27.0°F-2.8°C 25.8°F-3.4°C 95% Calm Calm -- 29.80 in1009.1 mb - 0.00 in0.0 mm 0.00 in0.0 mm
08:10 AM 27.0°F-2.8°C 25.8°F-3.4°C 95% Calm Calm -- 29.81 in1009.5 mb - 0.00 in0.0 mm 0.00 in0.0 mm
08:20 AM 27.0°F-2.8°C 25.8°F-3.4°C 95% Calm Calm -- 29.81 in1009.5 mb - 0.00 in0.0 mm 0.00 in0.0 mm
08:30 AM 26.9°F-2.8°C 25.7°F-3.5°C 95% Calm Calm -- 29.81 in1009.5 mb - 0.00 in0.0 mm 0.00 in0.0 mm
08:40 AM 26.8°F-2.9°C 25.6°F-3.6°C 95% Calm Calm -- 29.81 in1009.5 mb - 0.00 in0.0 mm 0.00 in0.0 mm
08:50 AM 26.7°F-2.9°C 25.5°F-3.6°C 95% Calm Calm -- 29.80 in1009.1 mb - 0.00 in0.0 mm 0.00 in0.0 mm
09:00 AM 26.8°F-2.9°C 25.6°F-3.6°C 95% Calm Calm -- 29.81 in1009.5 mb - 0.00 in0.0 mm 0.00 in0.0 mm
09:10 AM 27.0°F-2.8°C 25.8°F-3.4°C 95% Calm Calm -- 29.81 in1009.5 mb - 0.00 in0.0 mm 0.00 in0.0 mm
09:20 AM 27.3°F-2.6°C 26.1°F-3.3°C 95% Calm Calm -- 29.82 in1009.8 mb - 0.00 in0.0 mm 0.00 in0.0 mm
09:30 AM 27.8°F-2.3°C 26.8°F-2.9°C 96% Calm Calm -- 29.82 in1009.8 mb - 0.00 in0.0 mm 0.00 in0.0 mm
09:40 AM 28.6°F-1.9°C 27.6°F-2.4°C 96% Calm Calm -- 29.82 in1009.8 mb - 0.00 in0.0 mm 0.00 in0.0 mm
09:50 AM 29.7°F-1.3°C 28.9°F-1.7°C 97% Calm Calm -- 29.83 in1010.2 mb - 0.00 in0.0 mm 0.00 in0.0 mm
10:00 AM 30.6°F-0.8°C 29.9°F-1.2°C 97% Calm Calm -- 29.84 in1010.5 mb - 0.00 in0.0 mm 0.00 in0.0 mm
10:10 AM 32.2°F0.1°C 31.4°F-0.3°C 97% Calm Calm -- 29.84 in1010.5 mb - 0.00 in0.0 mm 0.00 in0.0 mm
10:20 AM 33.7°F0.9°C 32.9°F0.5°C 97% Calm Calm -- 29.84 in1010.5 mb - 0.00 in0.0 mm 0.00 in0.0 mm
10:30 AM 34.2°F1.2°C 33.2°F0.7°C 96% Calm Calm -- 29.84 in1010.5 mb - 0.00 in0.0 mm 0.00 in0.0 mm
10:40 AM 34.5°F1.4°C 33.2°F0.7°C 95% Calm Calm -- 29.85 in1010.8 mb - 0.00 in0.0 mm 0.00 in0.0 mm
10:50 AM 35.4°F1.9°C 34.1°F1.2°C 95% Calm Calm -- 29.85 in1010.8 mb - 0.00 in0.0 mm 0.00 in0.0 mm
11:00 AM 36.3°F2.4°C 34.8°F1.6°C 94% Calm Calm -- 29.84 in1010.5 mb - 0.00 in0.0 mm 0.00 in0.0 mm
11:10 AM 36.9°F2.7°C 35.1°F1.7°C 93% Calm Calm -- 29.83 in1010.2 mb - 0.00 in0.0 mm 0.00 in0.0 mm
11:20 AM 37.0°F2.8°C 34.6°F1.4°C 91% Calm Calm -- 29.82 in1009.8 mb - 0.00 in0.0 mm 0.00 in0.0 mm
11:30 AM 37.0°F2.8°C 34.6°F1.4°C 91% Calm Calm -- 29.82 in1009.8 mb - 0.00 in0.0 mm 0.00 in0.0 mm
11:40 AM 37.0°F2.8°C 34.6°F1.4°C 91% Calm Calm -- 29.82 in1009.8 mb - 0.00 in0.0 mm 0.00 in0.0 mm
11:50 AM 37.5°F3.1°C 35.4°F1.9°C 92% Calm Calm -- 29.82 in1009.8 mb - 0.00 in0.0 mm 0.00 in0.0 mm
12:00 PM 38.1°F3.4°C 35.7°F2.1°C 91% Calm Calm -- 29.82 in1009.8 mb - 0.00 in0.0 mm 0.00 in0.0 mm
12:10 PM 38.4°F3.6°C 36.0°F2.2°C 91% Calm Calm -- 29.82 in1009.8 mb - 0.00 in0.0 mm 0.00 in0.0 mm
12:20 PM 38.8°F3.8°C 36.4°F2.4°C 91% Calm Calm -- 29.82 in1009.8 mb - 0.00 in0.0 mm 0.00 in0.0 mm
12:30 PM 39.4°F4.1°C 37.0°F2.8°C 91% Calm Calm -- 29.82 in1009.8 mb - 0.00 in0.0 mm 0.00 in0.0 mm
12:40 PM 40.0°F4.4°C 37.6°F3.1°C 91% Calm Calm -- 29.83 in1010.2 mb - 0.00 in0.0 mm 0.00 in0.0 mm
12:50 PM 40.6°F4.8°C 38.2°F3.4°C 91% Calm Calm -- 29.82 in1009.8 mb - 0.00 in0.0 mm 0.00 in0.0 mm
01:00 PM 41.3°F5.2°C 38.6°F3.7°C 90% Calm Calm -- 29.83 in1010.2 mb - 0.00 in0.0 mm 0.00 in0.0 mm
01:10 PM 42.0°F5.6°C 39.0°F3.9°C 89% Calm Calm -- 29.83 in1010.2 mb - 0.00 in0.0 mm 0.00 in0.0 mm
01:20 PM 42.2°F5.7°C 38.6°F3.7°C 87% Calm Calm -- 29.83 in1010.2 mb - 0.00 in0.0 mm 0.00 in0.0 mm
01:30 PM 42.1°F5.6°C 38.5°F3.6°C 87% Calm Calm 1.2 mph1.9 kmh 29.83 in1010.2 mb - 0.00 in0.0 mm 0.00 in0.0 mm
01:40 PM 42.1°F5.6°C 38.8°F3.8°C 88% Calm Calm -- 29.83 in1010.2 mb - 0.00 in0.0 mm 0.00 in0.0 mm
01:50 PM 42.1°F5.6°C 38.8°F3.8°C 88% Calm Calm -- 29.83 in1010.2 mb - 0.00 in0.0 mm 0.00 in0.0 mm
02:00 PM 41.9°F5.5°C 38.6°F3.7°C 88% Calm Calm -- 29.83 in1010.2 mb - 0.00 in0.0 mm 0.00 in0.0 mm
02:10 PM 41.8°F5.4°C 38.8°F3.8°C 89% Calm Calm -- 29.82 in1009.8 mb - 0.00 in0.0 mm 0.00 in0.0 mm
02:20 PM 41.8°F5.4°C 38.8°F3.8°C 89% Calm Calm -- 29.81 in1009.5 mb - 0.00 in0.0 mm 0.00 in0.0 mm
02:30 PM 41.6°F5.3°C 38.9°F3.8°C 90% Calm Calm 2.3 mph3.7 kmh 29.81 in1009.5 mb - 0.00 in0.0 mm 0.00 in0.0 mm
02:40 PM 41.5°F5.3°C 38.8°F3.8°C 90% Calm Calm -- 29.81 in1009.5 mb - 0.00 in0.0 mm 0.00 in0.0 mm
02:50 PM 41.3°F5.2°C 38.6°F3.7°C 90% Calm Calm -- 29.81 in1009.5 mb - 0.00 in0.0 mm 0.00 in0.0 mm
03:00 PM 41.1°F5.1°C 38.7°F3.7°C 91% Calm Calm 1.2 mph1.9 kmh 29.82 in1009.8 mb - 0.00 in0.0 mm 0.00 in0.0 mm
03:10 PM 41.1°F5.1°C 38.7°F3.7°C 91% Calm Calm -- 29.82 in1009.8 mb - 0.00 in0.0 mm 0.00 in0.0 mm
03:20 PM 41.2°F5.1°C 38.8°F3.8°C 91% Calm Calm -- 29.82 in1009.8 mb - 0.00 in0.0 mm 0.00 in0.0 mm
03:30 PM 41.2°F5.1°C 38.8°F3.8°C 91% Calm Calm -- 29.81 in1009.5 mb - 0.00 in0.0 mm 0.00 in0.0 mm
03:40 PM 41.0°F5.0°C 38.3°F3.5°C 90% Calm Calm -- 29.81 in1009.5 mb - 0.00 in0.0 mm 0.00 in0.0 mm
03:50 PM 40.8°F4.9°C 38.4°F3.6°C 91% Calm Calm -- 29.80 in1009.1 mb - 0.00 in0.0 mm 0.00 in0.0 mm
04:00 PM 40.5°F4.7°C 37.8°F3.2°C 90% Calm Calm -- 29.80 in1009.1 mb - 0.00 in0.0 mm 0.00 in0.0 mm
04:10 PM 40.2°F4.6°C 37.8°F3.2°C 91% Calm Calm -- 29.79 in1008.8 mb - 0.00 in0.0 mm 0.00 in0.0 mm
04:20 PM 40.0°F4.4°C 37.6°F3.1°C 91% Calm Calm -- 29.79 in1008.8 mb - 0.00 in0.0 mm 0.00 in0.0 mm
04:30 PM 39.8°F4.3°C 37.4°F3.0°C 91% Calm Calm -- 29.80 in1009.1 mb - 0.00 in0.0 mm 0.00 in0.0 mm
04:40 PM 39.6°F4.2°C 37.2°F2.9°C 91% Calm Calm -- 29.80 in1009.1 mb - 0.00 in0.0 mm 0.00 in0.0 mm
04:50 PM 39.4°F4.1°C 37.3°F2.9°C 92% Calm Calm -- 29.80 in1009.1 mb - 0.00 in0.0 mm 0.00 in0.0 mm
05:00 PM 39.3°F4.1°C 37.2°F2.9°C 92% Calm Calm -- 29.80 in1009.1 mb - 0.00 in0.0 mm 0.00 in0.0 mm
05:10 PM 39.2°F4.0°C 37.1°F2.8°C 92% Calm Calm -- 29.80 in1009.1 mb - 0.00 in0.0 mm 0.00 in0.0 mm
05:20 PM 39.2°F4.0°C 37.3°F2.9°C 93% Calm Calm -- 29.80 in1009.1 mb - 0.00 in0.0 mm 0.00 in0.0 mm
05:30 PM 39.1°F3.9°C 37.3°F2.9°C 93% Calm Calm -- 29.80 in1009.1 mb - 0.00 in0.0 mm 0.00 in0.0 mm
05:40 PM 39.2°F4.0°C 37.3°F2.9°C 93% Calm Calm -- 29.79 in1008.8 mb - 0.00 in0.0 mm 0.00 in0.0 mm
05:50 PM 39.1°F3.9°C 37.2°F2.9°C 93% Calm Calm -- 29.79 in1008.8 mb - 0.00 in0.0 mm 0.00 in0.0 mm
06:00 PM 39.1°F3.9°C 37.2°F2.9°C 93% Calm Calm -- 29.78 in1008.5 mb - 0.00 in0.0 mm 0.00 in0.0 mm
06:10 PM 39.1°F3.9°C 37.2°F2.9°C 93% Calm Calm -- 29.78 in1008.5 mb - 0.00 in0.0 mm 0.00 in0.0 mm
06:20 PM 39.3°F4.1°C 37.4°F3.0°C 93% Calm Calm -- 29.78 in1008.5 mb - 0.00 in0.0 mm 0.00 in0.0 mm
06:30 PM 39.6°F4.2°C 38.0°F3.3°C 94% Calm Calm -- 29.77 in1008.1 mb - 0.00 in0.0 mm 0.00 in0.0 mm
06:40 PM 39.8°F4.3°C 37.9°F3.3°C 93% Calm Calm -- 29.77 in1008.1 mb - 0.00 in0.0 mm 0.00 in0.0 mm
06:50 PM 39.9°F4.4°C 38.0°F3.3°C 93% Calm Calm -- 29.77 in1008.1 mb - 0.00 in0.0 mm 0.00 in0.0 mm
07:00 PM 40.0°F4.4°C 38.2°F3.4°C 93% Calm Calm -- 29.77 in1008.1 mb - 0.00 in0.0 mm 0.00 in0.0 mm
07:10 PM 40.2°F4.6°C 38.3°F3.5°C 93% Calm Calm -- 29.77 in1008.1 mb - 0.00 in0.0 mm 0.00 in0.0 mm
07:20 PM 40.3°F4.6°C 38.4°F3.6°C 93% Calm Calm -- 29.77 in1008.1 mb - 0.00 in0.0 mm 0.00 in0.0 mm
07:30 PM 40.4°F4.7°C 38.5°F3.6°C 93% Calm Calm -- 29.76 in1007.8 mb - 0.00 in0.0 mm 0.00 in0.0 mm
07:40 PM 41.0°F5.0°C 39.4°F4.1°C 94% Calm Calm 2.3 mph3.7 kmh 29.76 in1007.8 mb - 0.01 in0.3 mm 0.01 in0.3 mm
07:50 PM 42.1°F5.6°C 40.7°F4.8°C 95% 2.3 mph S3.7 kmh S 5.8 mph9.3 kmh 29.76 in1007.8 mb - 0.00 in0.0 mm 0.01 in0.3 mm
08:00 PM 42.9°F6.1°C 41.3°F5.2°C 94% 2.3 mph S3.7 kmh S 5.8 mph9.3 kmh 29.76 in1007.8 mb - 0.00 in0.0 mm 0.01 in0.3 mm
08:10 PM 43.6°F6.4°C 42.0°F5.6°C 94% 1.2 mph SSW1.9 kmh SSW 10.4 mph16.7 kmh 29.75 in1007.5 mb - 0.00 in0.0 mm 0.01 in0.3 mm
08:20 PM 44.2°F6.8°C 42.6°F5.9°C 94% 5.8 mph SW9.3 kmh SW 8.1 mph13.0 kmh 29.75 in1007.5 mb - 0.00 in0.0 mm 0.01 in0.3 mm
08:30 PM 44.6°F7.0°C 43.0°F6.1°C 94% 8.1 mph S13.0 kmh S 12.7 mph20.4 kmh 29.74 in1007.1 mb - 0.01 in0.3 mm 0.02 in0.5 mm
08:40 PM 44.8°F7.1°C 43.2°F6.2°C 94% 4.6 mph S7.4 kmh S 8.1 mph13.0 kmh 29.73 in1006.8 mb - 0.00 in0.0 mm 0.02 in0.5 mm
08:50 PM 45.0°F7.2°C 43.4°F6.3°C 94% 2.3 mph S3.7 kmh S 6.9 mph11.1 kmh 29.73 in1006.8 mb - 0.00 in0.0 mm 0.02 in0.5 mm
09:00 PM 45.1°F7.3°C 43.5°F6.4°C 94% 5.8 mph SSW9.3 kmh SSW 12.7 mph20.4 kmh 29.71 in1006.1 mb - 0.00 in0.0 mm 0.02 in0.5 mm
09:10 PM 45.4°F7.4°C 43.8°F6.6°C 94% 8.1 mph SSW13.0 kmh SSW 11.5 mph18.5 kmh 29.71 in1006.1 mb - 0.00 in0.0 mm 0.02 in0.5 mm
09:20 PM 45.6°F7.6°C 44.3°F6.8°C 95% 8.1 mph SSW13.0 kmh SSW 13.8 mph22.2 kmh 29.70 in1005.8 mb - 0.00 in0.0 mm 0.02 in0.5 mm
09:30 PM 45.7°F7.6°C 44.4°F6.9°C 95% 6.9 mph S11.1 kmh S 11.5 mph18.5 kmh 29.69 in1005.4 mb - 0.00 in0.0 mm 0.02 in0.5 mm
09:40 PM 46.0°F7.8°C 44.6°F7.0°C 95% 8.1 mph S13.0 kmh S 15.0 mph24.1 kmh 29.68 in1005.1 mb - 0.00 in0.0 mm 0.02 in0.5 mm
09:50 PM 46.3°F7.9°C 44.9°F7.2°C 95% 10.4 mph S16.7 kmh S 18.4 mph29.6 kmh 29.68 in1005.1 mb - 0.00 in0.0 mm 0.02 in0.5 mm
10:00 PM 46.6°F8.1°C 45.2°F7.3°C 95% 10.4 mph SSW16.7 kmh SSW 13.8 mph22.2 kmh 29.68 in1005.1 mb - 0.00 in0.0 mm 0.02 in0.5 mm
10:10 PM 46.8°F8.2°C 45.4°F7.4°C 95% 6.9 mph SSW11.1 kmh SSW 9.2 mph14.8 kmh 29.67 in1004.7 mb - 0.00 in0.0 mm 0.02 in0.5 mm
10:20 PM 47.0°F8.3°C 45.9°F7.7°C 96% 9.2 mph SSW14.8 kmh SSW 12.7 mph20.4 kmh 29.67 in1004.7 mb - 0.01 in0.3 mm 0.02 in0.5 mm
10:30 PM 47.2°F8.4°C 46.1°F7.8°C 96% 8.1 mph SSW13.0 kmh SSW 12.7 mph20.4 kmh 29.66 in1004.4 mb - 0.00 in0.0 mm 0.02 in0.5 mm
10:40 PM 47.3°F8.5°C 46.2°F7.9°C 96% 6.9 mph SSW11.1 kmh SSW 11.5 mph18.5 kmh 29.66 in1004.4 mb - 0.00 in0.0 mm 0.02 in0.5 mm
10:50 PM 47.6°F8.7°C 46.5°F8.1°C 96% 5.8 mph SW9.3 kmh SW 11.5 mph18.5 kmh 29.66 in1004.4 mb - 0.00 in0.0 mm 0.02 in0.5 mm
11:00 PM 47.8°F8.8°C 46.7°F8.2°C 96% 5.8 mph SSW9.3 kmh SSW 8.1 mph13.0 kmh 29.65 in1004.1 mb - 0.01 in0.3 mm 0.03 in0.8 mm
11:10 PM 48.0°F8.9°C 46.9°F8.3°C 96% 8.1 mph S13.0 kmh S 12.7 mph20.4 kmh 29.65 in1004.1 mb - 0.00 in0.0 mm 0.03 in0.8 mm
11:20 PM 48.1°F8.9°C 47.0°F8.3°C 96% 8.1 mph SSW13.0 kmh SSW 13.8 mph22.2 kmh 29.64 in1003.7 mb - 0.00 in0.0 mm 0.03 in0.8 mm
11:30 PM 48.3°F9.1°C 47.2°F8.4°C 96% 8.1 mph SSW13.0 kmh SSW 11.5 mph18.5 kmh 29.63 in1003.4 mb - 0.00 in0.0 mm 0.03 in0.8 mm
11:40 PM 48.5°F9.2°C 47.4°F8.6°C 96% 10.4 mph SSW16.7 kmh SSW 12.7 mph20.4 kmh 29.63 in1003.4 mb - 0.00 in0.0 mm 0.03 in0.8 mm
11:50 PM 48.7°F9.3°C 47.6°F8.7°C 96% 6.9 mph SW11.1 kmh SW 11.5 mph18.5 kmh 29.63 in1003.4 mb - 0.00 in0.0 mm 0.03 in0.8 mm